createdAt,value
2022-10-31T00:00:58.377Z,173.88
2022-10-31T00:06:02.737Z,248.43
2022-10-31T00:11:04.719Z,162.25
2022-10-31T00:16:06.567Z,200.20
2022-10-31T00:21:08.412Z,75.18
2022-10-31T00:26:10.214Z,471.92
2022-10-31T00:31:13.243Z,253.43
2022-10-31T00:36:17.775Z,66.38
2022-10-31T00:41:19.498Z,9.93
2022-10-31T00:46:21.205Z,57.30
2022-10-31T00:51:22.935Z,121.03
2022-10-31T00:56:24.637Z,442.20
2022-10-31T01:01:26.360Z,419.60
2022-10-31T01:06:28.096Z,185.75
2022-10-31T01:11:29.761Z,19.38
2022-10-31T01:16:31.428Z,17.50
2022-10-31T01:21:33.531Z,13.20
2022-10-31T01:26:35.236Z,34.40
2022-10-31T01:31:40.045Z,105.55
2022-10-31T01:36:42.259Z,18.85
2022-10-31T01:41:46.701Z,19.77
2022-10-31T01:47:13.876Z,13.60
2022-10-31T01:52:27.756Z,35.60
2022-10-31T01:57:31.898Z,17.95
2022-10-31T02:03:07.563Z,13.70
2022-10-31T02:08:24.246Z,11.18
2022-10-31T02:13:27.033Z,17.30
2022-10-31T02:18:31.410Z,10.43
2022-10-31T02:24:10.413Z,29.80
2022-10-31T02:29:24.112Z,109.03
2022-10-31T02:34:38.896Z,6.85
2022-10-31T02:40:06.162Z,7.22
2022-10-31T02:45:28.735Z,11.52
2022-10-31T02:50:36.231Z,21.65
2022-10-31T02:55:37.830Z,306.38
2022-10-31T03:00:58.739Z,164.57
2022-10-31T03:06:15.565Z,27.40
2022-10-31T03:11:23.143Z,8.02
2022-10-31T03:16:46.517Z,114.80
2022-10-31T03:22:03.381Z,183.65
2022-10-31T03:27:08.761Z,52.45
2022-10-31T03:32:18.224Z,150.32
2022-10-31T03:37:21.809Z,11.57
2022-10-31T03:42:26.597Z,7.97
2022-10-31T03:47:28.577Z,46.03
2022-10-31T03:52:40.423Z,47.75
2022-10-31T03:58:10.281Z,104.07
2022-10-31T04:03:17.769Z,189.93
2022-10-31T04:08:24.146Z,296.67
2022-10-31T04:13:30.208Z,115.07
2022-10-31T04:18:31.867Z,88.07
2022-10-31T04:23:35.188Z,6.60
2022-10-31T04:28:36.879Z,7.82
2022-10-31T04:33:39.359Z,6.90
2022-10-31T04:38:41.123Z,12.98
2022-10-31T04:43:42.778Z,17.83
2022-10-31T04:48:44.410Z,12.65
2022-10-31T04:53:46.067Z,18.63
2022-10-31T04:58:47.744Z,15.43
2022-10-31T05:03:49.419Z,64.88
2022-10-31T05:08:51.687Z,79.53
2022-10-31T05:13:53.393Z,257.40
2022-10-31T05:18:55.061Z,112.50
2022-10-31T05:23:56.728Z,224.57
2022-10-31T05:28:58.404Z,230.65
2022-10-31T05:34:00.273Z,283.67
2022-10-31T05:39:01.972Z,224.07
2022-10-31T05:44:03.688Z,127.13
2022-10-31T05:49:05.365Z,238.50
2022-10-31T05:54:16.341Z,149.52
2022-10-31T05:59:18.022Z,161.10
2022-10-31T06:04:19.756Z,176.57
2022-10-31T06:09:21.443Z,110.60
2022-10-31T06:14:23.083Z,223.32
2022-10-31T06:19:24.768Z,198.25
2022-10-31T06:24:26.508Z,160.88
2022-10-31T06:29:28.165Z,137.52
2022-10-31T06:34:29.826Z,138.70
2022-10-31T06:39:31.504Z,85.55
2022-10-31T06:44:33.722Z,124.15
2022-10-31T06:49:35.367Z,193.30
2022-10-31T06:54:36.986Z,376.55
2022-10-31T06:59:38.633Z,272.73
2022-10-31T07:04:40.298Z,337.75
2022-10-31T07:09:42.199Z,320.00
2022-10-31T07:14:43.837Z,474.08
2022-10-31T07:19:45.500Z,715.50
2022-10-31T07:24:47.100Z,232.25
2022-10-31T07:29:48.789Z,264.70
2022-10-31T07:34:50.448Z,273.85
2022-10-31T07:39:52.102Z,817.60
2022-10-31T07:44:56.754Z,465.05
2022-10-31T07:49:59.434Z,1312.63
2022-10-31T07:55:01.251Z,648.03
2022-10-31T08:00:04.513Z,747.92
2022-10-31T08:05:06.572Z,908.95
2022-10-31T08:10:08.325Z,1002.67
2022-10-31T08:15:10.385Z,460.77
2022-10-31T08:20:12.046Z,694.22
2022-10-31T08:25:13.790Z,627.47
2022-10-31T08:30:15.443Z,249.30
2022-10-31T08:35:17.114Z,722.00
2022-10-31T08:40:18.788Z,449.50
2022-10-31T08:45:20.455Z,251.05
2022-10-31T08:50:22.104Z,917.97
2022-10-31T08:55:23.794Z,405.95
2022-10-31T09:00:26.339Z,516.60
2022-10-31T09:05:28.847Z,547.08
2022-10-31T09:10:57.007Z,459.92
2022-10-31T09:15:59.745Z,59.40
2022-10-31T09:21:01.970Z,30.92
2022-10-31T09:26:03.738Z,28.50
2022-10-31T09:31:05.384Z,28.00
2022-10-31T09:36:07.100Z,16.95
2022-10-31T09:41:25.203Z,16.50
2022-10-31T09:47:06.190Z,13.20
2022-10-31T09:52:39.479Z,18.10
2022-10-31T09:57:42.834Z,16.35
2022-10-31T10:03:29.113Z,17.08
2022-10-31T10:08:34.332Z,16.48
2022-10-31T10:13:57.645Z,19.88
2022-10-31T10:19:21.067Z,15.85
2022-10-31T10:24:51.783Z,24.30
2022-10-31T10:30:08.720Z,16.80
2022-10-31T10:35:22.514Z,16.70
2022-10-31T10:40:29.358Z,17.58
2022-10-31T10:45:56.671Z,22.27
2022-10-31T10:51:04.847Z,13.45
2022-10-31T10:56:28.420Z,16.92
2022-10-31T11:01:32.748Z,16.88
2022-10-31T11:06:34.520Z,16.67
2022-10-31T11:11:39.762Z,18.85
2022-10-31T11:16:46.819Z,15.43
2022-10-31T11:21:54.173Z,14.68
2022-10-31T11:27:23.769Z,15.50
2022-10-31T11:32:28.579Z,13.80
2022-10-31T11:37:36.282Z,18.55
2022-10-31T11:42:52.657Z,16.20
2022-10-31T11:47:59.787Z,15.27
2022-10-31T11:53:36.353Z,20.80
2022-10-31T11:58:58.771Z,17.15
2022-10-31T12:04:08.230Z,19.38
2022-10-31T12:09:25.165Z,15.57
2022-10-31T12:14:58.296Z,13.57
2022-10-31T12:20:44.211Z,14.60
2022-10-31T12:26:07.395Z,13.57
2022-10-31T12:31:32.676Z,19.50
2022-10-31T12:36:47.418Z,20.35
2022-10-31T12:42:28.670Z,13.65
2022-10-31T12:48:08.217Z,18.05
2022-10-31T12:53:38.225Z,19.85
2022-10-31T12:58:54.159Z,17.20
2022-10-31T13:04:14.118Z,15.82
2022-10-31T13:09:21.581Z,17.53
2022-10-31T13:14:43.103Z,16.52
2022-10-31T13:19:51.187Z,16.85
2022-10-31T13:25:12.249Z,19.48
2022-10-31T13:30:17.632Z,19.35
2022-10-31T13:35:29.551Z,16.48
2022-10-31T13:41:01.440Z,16.95
2022-10-31T13:46:49.877Z,15.65
2022-10-31T13:51:55.734Z,14.95
2022-10-31T13:56:58.599Z,14.40
2022-10-31T14:02:27.273Z,18.83
2022-10-31T14:07:33.641Z,17.73
2022-10-31T14:12:42.998Z,18.00
2022-10-31T14:18:05.162Z,16.17
2022-10-31T14:23:34.830Z,16.98
2022-10-31T14:28:37.774Z,16.45
2022-10-31T14:33:43.881Z,15.57
2022-10-31T14:39:06.452Z,13.57
2022-10-31T14:44:35.236Z,13.98
2022-10-31T14:49:58.568Z,18.90
2022-10-31T14:55:06.400Z,10.68
2022-10-31T15:00:16.431Z,19.15
2022-10-31T15:05:19.273Z,18.77
2022-10-31T15:10:37.476Z,16.45
2022-10-31T15:15:46.961Z,23.27
2022-10-31T15:21:01.557Z,25.02
2022-10-31T15:26:06.541Z,21.77
2022-10-31T15:31:32.005Z,20.80
2022-10-31T15:36:38.475Z,19.63
2022-10-31T15:41:54.808Z,31.23
2022-10-31T15:47:07.645Z,22.88
2022-10-31T15:52:24.608Z,22.98
2022-10-31T15:57:27.345Z,21.58
2022-10-31T16:02:31.161Z,25.95
2022-10-31T16:07:33.910Z,28.95
2022-10-31T16:12:43.635Z,24.40
2022-10-31T16:17:48.503Z,24.10
2022-10-31T16:22:52.450Z,21.40
2022-10-31T16:28:01.389Z,26.45
2022-10-31T16:33:35.162Z,22.02
2022-10-31T16:38:45.946Z,29.92
2022-10-31T16:44:03.180Z,23.30
2022-10-31T16:49:04.863Z,25.50
2022-10-31T16:54:07.652Z,23.60
2022-10-31T16:59:16.043Z,29.15
2022-10-31T17:04:19.252Z,25.52
2022-10-31T17:09:21.013Z,27.58
2022-10-31T17:14:25.187Z,31.92
2022-10-31T17:19:28.007Z,25.42
2022-10-31T17:24:33.716Z,23.23
2022-10-31T17:29:35.518Z,26.75
2022-10-31T17:34:43.304Z,27.88
2022-10-31T17:39:45.983Z,25.98
2022-10-31T17:44:47.742Z,24.00
2022-10-31T17:49:57.478Z,27.55
2022-10-31T17:55:07.936Z,24.43
2022-10-31T18:00:15.723Z,22.67
2022-10-31T18:05:18.685Z,25.80
2022-10-31T18:10:21.766Z,30.35
2022-10-31T18:15:24.438Z,25.88
2022-10-31T18:20:28.286Z,29.23
2022-10-31T18:25:32.331Z,41.17
2022-10-31T18:30:40.510Z,32.88
2022-10-31T18:35:45.406Z,30.88
2022-10-31T18:40:49.247Z,26.40
2022-10-31T18:45:53.693Z,27.77
2022-10-31T18:56:13.011Z,23.38
2022-10-31T19:01:21.996Z,23.35
2022-10-31T19:06:25.057Z,28.88
2022-10-31T19:11:27.790Z,30.33
2022-10-31T19:16:42.257Z,26.40
2022-10-31T19:22:02.177Z,28.13
2022-10-31T19:27:04.236Z,33.97
2022-10-31T19:32:14.008Z,27.40
2022-10-31T19:37:15.718Z,25.38
2022-10-31T19:42:35.658Z,33.60
2022-10-31T19:47:45.461Z,31.40
2022-10-31T19:52:48.214Z,33.53
2022-10-31T19:58:11.727Z,33.17
2022-10-31T20:03:12.211Z,35.30
2022-10-31T20:08:21.802Z,44.42
2022-10-31T20:13:23.709Z,39.80
2022-10-31T20:18:25.965Z,25.85
2022-10-31T20:23:28.017Z,36.13
2022-10-31T20:28:30.687Z,40.20
2022-10-31T20:33:32.326Z,40.25
2022-10-31T20:38:34.852Z,51.08
2022-10-31T20:43:37.547Z,42.33
2022-10-31T20:48:39.315Z,152.60
2022-10-31T20:53:40.969Z,142.25
2022-10-31T20:58:44.400Z,339.10
2022-10-31T21:03:46.900Z,456.88
2022-10-31T21:08:48.846Z,71.65
2022-10-31T21:13:51.506Z,397.88
2022-10-31T21:18:53.810Z,56.25
2022-10-31T21:23:57.838Z,37.08
2022-10-31T21:29:00.025Z,27.70
2022-10-31T21:34:01.848Z,33.88
2022-10-31T21:39:05.234Z,203.68
2022-10-31T21:44:06.957Z,385.58
2022-10-31T21:49:10.692Z,540.08
2022-10-31T21:54:28.917Z,473.48
2022-10-31T21:59:30.783Z,254.48
2022-10-31T22:04:33.544Z,381.73
2022-10-31T22:09:35.340Z,356.83
2022-10-31T22:14:37.031Z,315.40
2022-10-31T22:19:38.753Z,232.60
2022-10-31T22:24:40.459Z,459.15
2022-10-31T22:29:45.176Z,403.67
2022-10-31T22:34:46.817Z,312.90
2022-10-31T22:39:48.459Z,255.10
2022-10-31T22:44:50.118Z,294.52
2022-10-31T22:49:51.763Z,208.15
2022-10-31T22:54:56.898Z,83.68
2022-10-31T23:00:00.935Z,316.90
2022-10-31T23:05:02.620Z,401.25
2022-10-31T23:10:04.635Z,88.45
2022-10-31T23:15:06.912Z,128.73
2022-10-31T23:20:08.945Z,98.97
2022-10-31T23:25:10.754Z,192.35
2022-10-31T23:30:12.447Z,241.82
2022-10-31T23:35:14.097Z,133.10
2022-10-31T23:40:15.827Z,211.23
2022-10-31T23:45:17.478Z,443.70
2022-10-31T23:50:19.130Z,133.20
2022-10-31T23:55:20.786Z,666.33
